createdAt,value
2023-07-09T00:00:11.834Z,1362.00
2023-07-09T00:01:11.862Z,1360.00
2023-07-09T00:02:11.898Z,1345.00
2023-07-09T00:03:11.896Z,1333.00
2023-07-09T00:04:11.971Z,1347.00
2023-07-09T00:05:11.962Z,1334.00
2023-07-09T00:06:12.002Z,1341.00
2023-07-09T00:07:12.019Z,1326.00
2023-07-09T00:08:12.113Z,1322.00
2023-07-09T00:09:12.098Z,1332.00
2023-07-09T00:10:12.088Z,1332.00
2023-07-09T00:11:12.096Z,1330.00
2023-07-09T00:12:12.106Z,1340.00
2023-07-09T00:13:12.127Z,1318.00
2023-07-09T00:14:12.380Z,1349.00
2023-07-09T00:15:12.128Z,1325.00
2023-07-09T00:16:12.219Z,1326.00
2023-07-09T00:17:12.222Z,1341.00
2023-07-09T00:18:12.219Z,1329.00
2023-07-09T00:19:12.182Z,1334.00
2023-07-09T00:20:12.236Z,1335.00
2023-07-09T00:21:12.239Z,1328.00
2023-07-09T00:22:12.236Z,1332.00
2023-07-09T00:23:12.272Z,1325.00
2023-07-09T00:24:12.289Z,1331.00
2023-07-09T00:25:12.271Z,1339.00
2023-07-09T00:26:12.340Z,1342.00
2023-07-09T00:27:12.306Z,1353.00
2023-07-09T00:28:12.308Z,1362.00
2023-07-09T00:29:12.314Z,1361.00
2023-07-09T00:30:12.328Z,1349.00
2023-07-09T00:31:12.377Z,1369.00
2023-07-09T00:32:12.390Z,1367.00
2023-07-09T00:33:12.397Z,1376.00
2023-07-09T00:34:12.330Z,1381.00
2023-07-09T00:35:12.361Z,1396.00
2023-07-09T00:36:12.343Z,1414.00
2023-07-09T00:37:12.355Z,1425.00
2023-07-09T00:38:12.412Z,1437.00
2023-07-09T00:39:12.367Z,1448.00
2023-07-09T00:40:12.355Z,1464.00
2023-07-09T00:41:12.395Z,1492.00
2023-07-09T00:42:12.401Z,1498.00
2023-07-09T00:43:12.409Z,1507.00
2023-07-09T00:44:12.397Z,1515.00
2023-07-09T00:45:12.420Z,1520.00
2023-07-09T00:46:12.418Z,1520.00
2023-07-09T00:47:12.402Z,1530.00
2023-07-09T00:48:12.414Z,1544.00
2023-07-09T00:49:12.401Z,1546.00
2023-07-09T00:50:12.414Z,1575.00
2023-07-09T00:51:12.505Z,1580.00
2023-07-09T00:52:12.477Z,1593.00
2023-07-09T00:53:12.478Z,1600.00
2023-07-09T00:54:12.478Z,1616.00
2023-07-09T00:55:12.494Z,1627.00
2023-07-09T00:56:12.465Z,1626.00
2023-07-09T00:57:12.481Z,1636.00
2023-07-09T00:58:12.513Z,1642.00
2023-07-09T00:59:12.569Z,1645.00
2023-07-09T01:00:12.586Z,1643.00
2023-07-09T01:01:12.730Z,1651.00
2023-07-09T01:02:12.586Z,1649.00
2023-07-09T01:03:12.593Z,1660.00
2023-07-09T01:04:12.668Z,1668.00
2023-07-09T01:05:12.707Z,1684.00
2023-07-09T01:06:12.662Z,1683.00
2023-07-09T01:07:12.678Z,1704.00
2023-07-09T01:08:12.675Z,1708.00
2023-07-09T01:09:12.735Z,1715.00
2023-07-09T01:10:12.758Z,1710.00
2023-07-09T01:11:12.747Z,1721.00
2023-07-09T01:12:12.754Z,1725.00
2023-07-09T01:13:12.796Z,1734.00
2023-07-09T01:14:12.848Z,1743.00
2023-07-09T01:15:12.920Z,1743.00
2023-07-09T01:16:13.058Z,1740.00
2023-07-09T01:17:13.026Z,1754.00
2023-07-09T01:18:13.041Z,1746.00
2023-07-09T01:19:13.062Z,1751.00
2023-07-09T01:20:13.052Z,1758.00
2023-07-09T01:21:13.052Z,1755.00
2023-07-09T01:22:13.153Z,1754.00
2023-07-09T01:23:13.158Z,1739.00
2023-07-09T01:24:13.173Z,1749.00
2023-07-09T01:25:13.167Z,1767.00
2023-07-09T01:26:13.166Z,1761.00
2023-07-09T01:27:13.198Z,1763.00
2023-07-09T01:28:13.201Z,1775.00
2023-07-09T01:29:13.235Z,1783.00
2023-07-09T01:30:13.209Z,1786.00
2023-07-09T01:31:13.263Z,1812.00
2023-07-09T01:32:13.273Z,1838.00
2023-07-09T01:33:13.352Z,1858.00
2023-07-09T01:34:13.279Z,1889.00
2023-07-09T01:35:13.303Z,1915.00
2023-07-09T01:36:13.344Z,1940.00
2023-07-09T01:37:13.327Z,1946.00
2023-07-09T01:38:13.381Z,1980.00
2023-07-09T01:39:13.381Z,1993.00
2023-07-09T01:40:28.204Z,2009.00
2023-07-09T01:41:14.359Z,2011.00
2023-07-09T01:42:13.362Z,2017.00
2023-07-09T01:43:13.344Z,2033.00
2023-07-09T01:44:13.348Z,2059.00
2023-07-09T01:45:13.367Z,2093.00
2023-07-09T01:46:13.330Z,2108.00
2023-07-09T01:47:13.346Z,2118.00
2023-07-09T01:48:13.335Z,2113.00
2023-07-09T01:49:13.324Z,2115.00
2023-07-09T01:50:13.313Z,2102.00
2023-07-09T01:51:13.302Z,2095.00
2023-07-09T01:52:13.292Z,2091.00
2023-07-09T01:53:13.349Z,2081.00
2023-07-09T01:54:13.275Z,2064.00
2023-07-09T01:55:13.264Z,2053.00
2023-07-09T01:56:13.238Z,2034.00
2023-07-09T01:57:13.234Z,2009.00
2023-07-09T01:58:13.257Z,1983.00
2023-07-09T01:59:13.283Z,1973.00
2023-07-09T02:00:13.269Z,1952.00
2023-07-09T02:01:13.230Z,1931.00
2023-07-09T02:02:13.205Z,1922.00
2023-07-09T02:03:13.202Z,1921.00
2023-07-09T02:04:13.363Z,1912.00
2023-07-09T02:05:13.303Z,1901.00
2023-07-09T02:06:13.323Z,1890.00
2023-07-09T02:07:13.330Z,1884.00
2023-07-09T02:08:13.370Z,1878.00
2023-07-09T02:09:13.367Z,1872.00
2023-07-09T02:10:13.407Z,1875.00
2023-07-09T02:11:13.378Z,1873.00
2023-07-09T02:12:13.414Z,1871.00
2023-07-09T02:13:13.437Z,1874.00
2023-07-09T02:14:13.509Z,1873.00
2023-07-09T02:15:13.466Z,1884.00
2023-07-09T02:16:13.504Z,1906.00
2023-07-09T02:17:13.665Z,1905.00
2023-07-09T02:18:13.537Z,1898.00
2023-07-09T02:19:13.545Z,1910.00
2023-07-09T02:20:13.586Z,1905.00
2023-07-09T02:21:13.569Z,1908.00
2023-07-09T02:22:13.601Z,1910.00
2023-07-09T02:23:13.700Z,1915.00
2023-07-09T02:24:13.646Z,1915.00
2023-07-09T02:25:13.642Z,1905.00
2023-07-09T02:26:13.660Z,1910.00
2023-07-09T02:27:13.655Z,1901.00
2023-07-09T02:28:13.674Z,1896.00
2023-07-09T02:29:13.671Z,1892.00
2023-07-09T02:30:13.709Z,1883.00
2023-07-09T02:31:13.784Z,1895.00
2023-07-09T02:32:13.742Z,1880.00
2023-07-09T02:33:13.770Z,1893.00
2023-07-09T02:34:13.779Z,1886.00
2023-07-09T02:35:13.801Z,1877.00
2023-07-09T02:36:13.812Z,1862.00
2023-07-09T02:37:13.842Z,1850.00
2023-07-09T02:38:13.862Z,1853.00
2023-07-09T02:39:13.816Z,1845.00
2023-07-09T02:40:13.858Z,1845.00
2023-07-09T02:41:13.912Z,1851.00
2023-07-09T02:42:13.879Z,1815.00
2023-07-09T02:43:13.890Z,1785.00
2023-07-09T02:44:13.924Z,1810.00
2023-07-09T02:45:13.887Z,1789.00
2023-07-09T02:46:13.906Z,1781.00
2023-07-09T02:47:13.956Z,1778.00
2023-07-09T02:48:13.961Z,1766.00
2023-07-09T02:49:13.950Z,1770.00
2023-07-09T02:50:14.035Z,1756.00
2023-07-09T02:51:13.954Z,1747.00
2023-07-09T02:52:13.969Z,1740.00
2023-07-09T02:53:13.972Z,1756.00
2023-07-09T02:54:14.004Z,1725.00
2023-07-09T02:55:14.012Z,1736.00
2023-07-09T02:56:14.039Z,1726.00
2023-07-09T02:57:14.011Z,1723.00
2023-07-09T02:58:14.072Z,1722.00
2023-07-09T02:59:14.055Z,1730.00
2023-07-09T03:00:14.064Z,1726.00
2023-07-09T03:01:14.084Z,1727.00
2023-07-09T03:02:14.224Z,1721.00
2023-07-09T03:03:14.232Z,1723.00
2023-07-09T03:04:14.161Z,1724.00
2023-07-09T03:05:14.142Z,1719.00
2023-07-09T03:06:14.165Z,1707.00
2023-07-09T03:07:14.203Z,1724.00
2023-07-09T03:08:14.171Z,1717.00
2023-07-09T03:09:14.184Z,1713.00
2023-07-09T03:10:14.205Z,1698.00
2023-07-09T03:11:14.224Z,1693.00
2023-07-09T03:12:14.241Z,1686.00
2023-07-09T03:13:14.249Z,1683.00
2023-07-09T03:14:14.312Z,1673.00
2023-07-09T03:15:14.292Z,1673.00
2023-07-09T03:16:14.273Z,1670.00
2023-07-09T03:17:14.286Z,1665.00
2023-07-09T03:18:14.300Z,1660.00
2023-07-09T03:19:14.325Z,1654.00
2023-07-09T03:20:14.332Z,1649.00
2023-07-09T03:21:14.308Z,1643.00
2023-07-09T03:22:14.384Z,1650.00
2023-07-09T03:23:14.354Z,1670.00
2023-07-09T03:24:14.359Z,1667.00
2023-07-09T03:25:14.370Z,1662.00
2023-07-09T03:26:14.391Z,1671.00
2023-07-09T03:27:14.430Z,1669.00
2023-07-09T03:28:14.392Z,1673.00
2023-07-09T03:29:14.455Z,1669.00
2023-07-09T03:30:14.484Z,1679.00
2023-07-09T03:31:14.457Z,1693.00
2023-07-09T03:32:14.541Z,1686.00
2023-07-09T03:33:14.487Z,1705.00
2023-07-09T03:34:14.510Z,1714.00
2023-07-09T03:35:14.527Z,1726.00
2023-07-09T03:36:14.535Z,1745.00
2023-07-09T03:37:14.612Z,1732.00
2023-07-09T03:38:14.568Z,1747.00
2023-07-09T03:39:14.598Z,1750.00
2023-07-09T03:40:14.589Z,1751.00
2023-07-09T03:41:14.592Z,1749.00
2023-07-09T03:42:14.606Z,1742.00
2023-07-09T03:43:14.638Z,1742.00
2023-07-09T03:44:14.647Z,1748.00
2023-07-09T03:45:14.649Z,1745.00
2023-07-09T03:46:14.680Z,1736.00
2023-07-09T03:47:14.715Z,1727.00
2023-07-09T03:48:14.737Z,1725.00
2023-07-09T03:49:14.686Z,1720.00
2023-07-09T03:50:14.710Z,1716.00
2023-07-09T03:51:14.726Z,1714.00
2023-07-09T03:52:14.745Z,1720.00
2023-07-09T03:53:14.756Z,1722.00
2023-07-09T03:54:14.781Z,1702.00
2023-07-09T03:55:14.795Z,1694.00
2023-07-09T03:56:14.777Z,1678.00
2023-07-09T03:57:14.837Z,1674.00
2023-07-09T03:58:14.820Z,1672.00
2023-07-09T03:59:14.818Z,1651.00
2023-07-09T04:00:14.835Z,1646.00
2023-07-09T04:01:14.864Z,1646.00
2023-07-09T04:02:14.875Z,1648.00
2023-07-09T04:03:14.890Z,1656.00
2023-07-09T04:04:14.951Z,1640.00
2023-07-09T04:05:14.931Z,1649.00
2023-07-09T04:06:14.938Z,1630.00
2023-07-09T04:07:14.963Z,1621.00
2023-07-09T04:08:14.947Z,1620.00
2023-07-09T04:09:14.987Z,1596.00
2023-07-09T04:10:14.977Z,1598.00
2023-07-09T04:11:14.995Z,1573.00
2023-07-09T04:12:15.042Z,1561.00
2023-07-09T04:13:15.048Z,1558.00
2023-07-09T04:14:15.104Z,1555.00
2023-07-09T04:15:15.071Z,1554.00
2023-07-09T04:16:15.125Z,1545.00
2023-07-09T04:17:15.118Z,1541.00
2023-07-09T04:18:15.142Z,1537.00
2023-07-09T04:19:15.159Z,1535.00
2023-07-09T04:20:15.195Z,1536.00
2023-07-09T04:21:15.188Z,1546.00
2023-07-09T04:22:15.190Z,1551.00
2023-07-09T04:23:15.238Z,1578.00
2023-07-09T04:24:15.229Z,1576.00
2023-07-09T04:25:15.231Z,1586.00
2023-07-09T04:26:15.224Z,1595.00
2023-07-09T04:27:15.267Z,1613.00
2023-07-09T04:28:15.268Z,1621.00
2023-07-09T04:29:15.279Z,1636.00
2023-07-09T04:30:15.302Z,1652.00
2023-07-09T04:31:15.331Z,1658.00
2023-07-09T04:32:15.599Z,1674.00
2023-07-09T04:33:15.370Z,1684.00
2023-07-09T04:34:15.375Z,1702.00
2023-07-09T04:35:15.397Z,1706.00
2023-07-09T04:36:15.376Z,1720.00
2023-07-09T04:37:15.446Z,1736.00
2023-07-09T04:38:15.443Z,1731.00
2023-07-09T04:39:15.465Z,1735.00
2023-07-09T04:40:15.446Z,1747.00
2023-07-09T04:41:15.469Z,1733.00
2023-07-09T04:42:15.461Z,1727.00
2023-07-09T04:43:15.523Z,1727.00
2023-07-09T04:44:15.503Z,1735.00
2023-07-09T04:45:15.531Z,1722.00
2023-07-09T04:46:15.599Z,1730.00
2023-07-09T04:47:15.540Z,1714.00
2023-07-09T04:48:15.591Z,1722.00
2023-07-09T04:49:15.593Z,1704.00
2023-07-09T04:50:15.599Z,1690.00
2023-07-09T04:51:15.639Z,1689.00
2023-07-09T04:52:15.651Z,1684.00
2023-07-09T04:53:15.668Z,1675.00
2023-07-09T04:54:15.661Z,1666.00
2023-07-09T04:55:15.680Z,1664.00
2023-07-09T04:56:15.722Z,1659.00
2023-07-09T04:57:15.671Z,1662.00
2023-07-09T04:58:15.706Z,1650.00
2023-07-09T04:59:15.697Z,1658.00
2023-07-09T05:00:15.722Z,1656.00
2023-07-09T05:01:15.764Z,1662.00
2023-07-09T05:02:15.752Z,1646.00
2023-07-09T05:03:15.788Z,1656.00
2023-07-09T05:04:15.894Z,1650.00
2023-07-09T05:05:15.849Z,1653.00
2023-07-09T05:06:15.799Z,1646.00
2023-07-09T05:07:15.820Z,1650.00
2023-07-09T05:08:15.843Z,1651.00
2023-07-09T05:09:15.840Z,1653.00
2023-07-09T05:10:15.844Z,1656.00
2023-07-09T05:11:15.911Z,1647.00
2023-07-09T05:12:15.874Z,1660.00
2023-07-09T05:13:15.890Z,1652.00
2023-07-09T05:14:16.011Z,1649.00
2023-07-09T05:15:15.943Z,1654.00
2023-07-09T05:16:16.025Z,1654.00
2023-07-09T05:17:15.948Z,1657.00
2023-07-09T05:18:15.958Z,1658.00
2023-07-09T05:19:15.957Z,1665.00
2023-07-09T05:20:15.962Z,1660.00
2023-07-09T05:21:15.938Z,1664.00
2023-07-09T05:22:15.935Z,1665.00
2023-07-09T05:23:15.945Z,1661.00
2023-07-09T05:24:15.941Z,1662.00
2023-07-09T05:25:15.969Z,1672.00
2023-07-09T05:26:15.979Z,1679.00
2023-07-09T05:27:15.961Z,1689.00
2023-07-09T05:28:15.965Z,1691.00
2023-07-09T05:29:15.954Z,1698.00
2023-07-09T05:30:15.975Z,1698.00
2023-07-09T05:31:16.015Z,1705.00
2023-07-09T05:32:15.990Z,1717.00
2023-07-09T05:33:16.016Z,1720.00
2023-07-09T05:34:16.027Z,1716.00
2023-07-09T05:35:16.093Z,1724.00
2023-07-09T05:36:16.116Z,1725.00
2023-07-09T05:37:16.150Z,1724.00
2023-07-09T05:38:16.183Z,1730.00
2023-07-09T05:39:16.229Z,1736.00
2023-07-09T05:40:16.307Z,1740.00
2023-07-09T05:41:16.337Z,1739.00
2023-07-09T05:42:16.468Z,1741.00
2023-07-09T05:43:16.462Z,1752.00
2023-07-09T05:44:16.510Z,1765.00
2023-07-09T05:45:16.653Z,1794.00
2023-07-09T05:46:16.666Z,1791.00
2023-07-09T05:47:16.787Z,1800.00
2023-07-09T05:48:16.756Z,1819.00
2023-07-09T05:49:16.844Z,1836.00
2023-07-09T05:50:16.894Z,1829.00
2023-07-09T05:51:16.959Z,1821.00
2023-07-09T05:52:17.006Z,1822.00
2023-07-09T05:53:17.068Z,1840.00
2023-07-09T05:54:17.131Z,1846.00
2023-07-09T05:55:17.175Z,1841.00
2023-07-09T05:56:17.215Z,1835.00
2023-07-09T05:57:17.310Z,1835.00
2023-07-09T05:58:17.357Z,1815.00
2023-07-09T05:59:17.418Z,1821.00
2023-07-09T06:00:17.441Z,1836.00
2023-07-09T06:01:17.541Z,1849.00
2023-07-09T06:02:17.645Z,1861.00
2023-07-09T06:03:17.783Z,1899.00
2023-07-09T06:04:17.722Z,1898.00
2023-07-09T06:05:17.733Z,1922.00
2023-07-09T06:06:17.756Z,1936.00
2023-07-09T06:07:17.824Z,1966.00
2023-07-09T06:08:17.856Z,1989.00
2023-07-09T06:09:17.875Z,1983.00
2023-07-09T06:10:17.948Z,1979.00
2023-07-09T06:11:18.004Z,2007.00
2023-07-09T06:12:18.029Z,2001.00
2023-07-09T06:13:18.034Z,2022.00
2023-07-09T06:14:18.225Z,2030.00
2023-07-09T06:15:18.126Z,2007.00
2023-07-09T06:16:18.179Z,1989.00
2023-07-09T06:17:18.206Z,1983.00
2023-07-09T06:18:18.271Z,1989.00
2023-07-09T06:19:18.261Z,1983.00
2023-07-09T06:20:18.309Z,1986.00
2023-07-09T06:21:18.357Z,1979.00
2023-07-09T06:22:18.374Z,1986.00
2023-07-09T06:23:18.380Z,1979.00
2023-07-09T06:24:18.408Z,2000.00
2023-07-09T06:25:18.415Z,1999.00
2023-07-09T06:26:18.506Z,2002.00
2023-07-09T06:27:18.468Z,1996.00
2023-07-09T06:28:18.473Z,2000.00
2023-07-09T06:29:18.492Z,1988.00
2023-07-09T06:30:18.508Z,1985.00
2023-07-09T06:31:18.570Z,1969.00
2023-07-09T06:32:18.648Z,1970.00
2023-07-09T06:33:18.596Z,1952.00
2023-07-09T06:34:18.592Z,1959.00
2023-07-09T06:35:18.627Z,1948.00
2023-07-09T06:36:18.619Z,1948.00
2023-07-09T06:37:18.606Z,1952.00
2023-07-09T06:38:18.618Z,1967.00
2023-07-09T06:39:18.630Z,1943.00
2023-07-09T06:40:18.627Z,1951.00
2023-07-09T06:41:18.633Z,1952.00
2023-07-09T06:42:18.619Z,1947.00
2023-07-09T06:43:18.633Z,1937.00
2023-07-09T06:44:18.602Z,1934.00
2023-07-09T06:45:18.611Z,1940.00
2023-07-09T06:46:18.635Z,1953.00
2023-07-09T06:47:18.614Z,1935.00
2023-07-09T06:48:18.630Z,1920.00
2023-07-09T06:49:18.615Z,1930.00
2023-07-09T06:50:18.681Z,1920.00
2023-07-09T06:51:18.719Z,1899.00
2023-07-09T06:52:18.716Z,1888.00
2023-07-09T06:53:18.772Z,1907.00
2023-07-09T06:54:18.765Z,1899.00
2023-07-09T06:55:18.788Z,1869.00
2023-07-09T06:56:18.818Z,1863.00
2023-07-09T06:57:18.869Z,1859.00
2023-07-09T06:58:18.933Z,1864.00
2023-07-09T06:59:18.989Z,1890.00
2023-07-09T07:00:19.034Z,1858.00
2023-07-09T07:01:21.415Z,1871.00
2023-07-09T07:02:19.122Z,1881.00
2023-07-09T07:03:19.147Z,1883.00
2023-07-09T07:04:19.064Z,1862.00
2023-07-09T07:05:19.068Z,1838.00
2023-07-09T07:06:19.066Z,1833.00
2023-07-09T07:07:19.055Z,1800.00
2023-07-09T07:08:19.088Z,1803.00
2023-07-09T07:09:19.048Z,1792.00
2023-07-09T07:10:19.024Z,1783.00
2023-07-09T07:11:19.039Z,1797.00
2023-07-09T07:12:19.028Z,1780.00
2023-07-09T07:13:19.016Z,1774.00
2023-07-09T07:14:19.016Z,1784.00
2023-07-09T07:15:19.002Z,1755.00
2023-07-09T07:16:19.005Z,1743.00
2023-07-09T07:17:18.982Z,1745.00
2023-07-09T07:18:19.006Z,1756.00
2023-07-09T07:19:18.991Z,1732.00
2023-07-09T07:20:18.941Z,1725.00
2023-07-09T07:21:18.949Z,1710.00
2023-07-09T07:22:18.932Z,1704.00
2023-07-09T07:23:18.935Z,1693.00
2023-07-09T07:24:19.876Z,1678.00
2023-07-09T07:25:18.942Z,1683.00
2023-07-09T07:26:18.906Z,1663.00
2023-07-09T07:27:18.949Z,1673.00
2023-07-09T07:28:18.892Z,1664.00
2023-07-09T07:29:18.888Z,1644.00
2023-07-09T07:30:18.942Z,1647.00
2023-07-09T07:31:18.917Z,1629.00
2023-07-09T07:32:18.947Z,1635.00
2023-07-09T07:33:18.884Z,1625.00
2023-07-09T07:34:18.852Z,1601.00
2023-07-09T07:35:18.837Z,1605.00
2023-07-09T07:37:18.864Z,1587.00
2023-07-09T07:38:18.842Z,1601.00
2023-07-09T07:39:18.837Z,1566.00
2023-07-09T07:40:18.871Z,1574.00
2023-07-09T07:41:18.825Z,1574.00
2023-07-09T07:42:18.811Z,1568.00
2023-07-09T07:43:18.882Z,1553.00
2023-07-09T07:44:18.839Z,1544.00
2023-07-09T07:45:18.773Z,1540.00
2023-07-09T07:46:18.900Z,1522.00
2023-07-09T07:47:18.798Z,1516.00
2023-07-09T07:48:18.769Z,1505.00
2023-07-09T07:49:18.785Z,1522.00
2023-07-09T07:50:18.883Z,1500.00
2023-07-09T07:51:18.727Z,1498.00
2023-07-09T07:52:18.729Z,1477.00
2023-07-09T07:53:18.755Z,1471.00
2023-07-09T07:54:18.705Z,1462.00
2023-07-09T07:55:20.624Z,1470.00
2023-07-09T07:56:18.700Z,1468.00
2023-07-09T07:57:18.676Z,1466.00
2023-07-09T07:58:18.693Z,1446.00
2023-07-09T07:59:18.677Z,1436.00
2023-07-09T08:00:18.677Z,1445.00
2023-07-09T08:01:18.729Z,1423.00
2023-07-09T08:02:18.716Z,1405.00
2023-07-09T08:03:18.625Z,1413.00
2023-07-09T08:04:18.679Z,1379.00
2023-07-09T08:05:18.635Z,1390.00
2023-07-09T08:06:18.628Z,1384.00
2023-07-09T08:07:18.620Z,1365.00
2023-07-09T08:08:18.625Z,1362.00
2023-07-09T08:09:18.635Z,1367.00
2023-07-09T08:10:18.579Z,1367.00
2023-07-09T08:11:18.687Z,1330.00
2023-07-09T08:12:18.604Z,1312.00
2023-07-09T08:13:18.581Z,1317.00
2023-07-09T08:14:18.645Z,1305.00
2023-07-09T08:15:18.547Z,1320.00
2023-07-09T08:16:19.415Z,1288.00
2023-07-09T08:17:18.528Z,1300.00
2023-07-09T08:18:18.630Z,1312.00
2023-07-09T08:19:18.519Z,1302.00
2023-07-09T08:20:18.523Z,1293.00
2023-07-09T08:21:18.511Z,1281.00
2023-07-09T08:22:18.516Z,1273.00
2023-07-09T08:23:18.495Z,1260.00
2023-07-09T08:24:18.462Z,1255.00
2023-07-09T08:25:18.457Z,1248.00
2023-07-09T08:26:18.458Z,1247.00
2023-07-09T08:27:18.491Z,1225.00
2023-07-09T08:28:18.466Z,1232.00
2023-07-09T08:29:18.433Z,1226.00
2023-07-09T08:30:18.442Z,1215.00
2023-07-09T08:31:18.481Z,1217.00
2023-07-09T08:32:18.438Z,1206.00
2023-07-09T08:33:18.451Z,1188.00
2023-07-09T08:34:18.428Z,1173.00
2023-07-09T08:36:18.409Z,1199.00
2023-07-09T08:37:18.398Z,1176.00
2023-07-09T08:38:18.418Z,1171.00
2023-07-09T08:39:18.422Z,1148.00
2023-07-09T08:40:18.398Z,1161.00
2023-07-09T08:41:18.370Z,1150.00
2023-07-09T08:42:18.353Z,1150.00
2023-07-09T08:43:18.364Z,1140.00
2023-07-09T08:44:18.365Z,1127.00
2023-07-09T08:45:18.340Z,1109.00
2023-07-09T08:46:18.394Z,1092.00
2023-07-09T08:47:18.356Z,1089.00
2023-07-09T08:48:18.348Z,1096.00
2023-07-09T08:49:18.304Z,1086.00
2023-07-09T08:50:18.305Z,1056.00
2023-07-09T08:51:18.312Z,1058.00
2023-07-09T08:52:18.290Z,1053.00
2023-07-09T08:53:18.281Z,1048.00
2023-07-09T08:54:18.267Z,1043.00
2023-07-09T08:55:18.259Z,1034.00
2023-07-09T08:56:18.260Z,1031.00
2023-07-09T08:57:18.255Z,1026.00
2023-07-09T08:58:18.276Z,1032.00
2023-07-09T08:59:18.250Z,1029.00
2023-07-09T09:00:18.267Z,1010.00
2023-07-09T09:01:18.282Z,1011.00
2023-07-09T09:02:18.274Z,1013.00
2023-07-09T09:03:18.243Z,997.00
2023-07-09T09:04:18.230Z,963.00
2023-07-09T09:05:18.184Z,967.00
2023-07-09T09:06:18.191Z,992.00
2023-07-09T09:07:18.188Z,943.00
2023-07-09T09:08:18.165Z,930.00
2023-07-09T09:09:18.155Z,938.00
2023-07-09T09:10:18.198Z,914.00
2023-07-09T09:11:18.150Z,918.00
2023-07-09T09:12:18.161Z,894.00
2023-07-09T09:13:18.137Z,896.00
2023-07-09T09:14:18.183Z,894.00
2023-07-09T09:15:18.127Z,900.00
2023-07-09T09:16:18.179Z,907.00
2023-07-09T09:17:18.106Z,871.00
2023-07-09T09:18:18.111Z,845.00
2023-07-09T09:19:18.105Z,854.00
2023-07-09T09:20:18.069Z,851.00
2023-07-09T09:21:18.083Z,825.00
2023-07-09T09:22:18.080Z,828.00
2023-07-09T09:23:18.068Z,823.00
2023-07-09T09:24:18.051Z,830.00
2023-07-09T09:25:18.055Z,834.00
2023-07-09T09:26:18.037Z,823.00
2023-07-09T09:27:18.046Z,808.00
2023-07-09T09:28:18.021Z,805.00
2023-07-09T09:29:18.017Z,780.00
2023-07-09T09:30:18.085Z,808.00
2023-07-09T09:31:18.170Z,773.00
2023-07-09T09:32:18.191Z,752.00
2023-07-09T09:33:18.327Z,753.00
2023-07-09T09:34:18.288Z,759.00
2023-07-09T09:35:18.357Z,750.00
2023-07-09T09:36:18.419Z,763.00
2023-07-09T09:37:18.452Z,754.00
2023-07-09T09:38:18.494Z,711.00
2023-07-09T09:39:18.568Z,723.00
2023-07-09T09:40:18.635Z,715.00
2023-07-09T09:41:18.698Z,716.00
2023-07-09T09:42:18.800Z,727.00
2023-07-09T09:43:18.807Z,719.00
2023-07-09T09:44:18.835Z,728.00
2023-07-09T09:45:18.948Z,686.00
2023-07-09T09:46:18.970Z,710.00
2023-07-09T09:47:19.131Z,719.00
2023-07-09T09:48:19.144Z,707.00
2023-07-09T09:49:19.135Z,700.00
2023-07-09T09:50:19.263Z,699.00
2023-07-09T09:51:19.258Z,702.00
2023-07-09T09:52:19.307Z,698.00
2023-07-09T09:53:19.406Z,690.00
2023-07-09T09:54:19.421Z,676.00
2023-07-09T09:55:19.496Z,663.00
2023-07-09T09:56:19.558Z,668.00
2023-07-09T09:57:19.576Z,671.00
2023-07-09T09:58:19.693Z,673.00
2023-07-09T09:59:19.697Z,658.00
2023-07-09T10:00:19.887Z,662.00
2023-07-09T10:01:19.858Z,653.00
2023-07-09T10:02:19.940Z,652.00
2023-07-09T10:03:20.050Z,633.00
2023-07-09T10:04:20.033Z,648.00
2023-07-09T10:05:20.038Z,655.00
2023-07-09T10:06:20.145Z,652.00
2023-07-09T10:07:20.183Z,648.00
2023-07-09T10:08:20.243Z,652.00
2023-07-09T10:09:20.272Z,657.00
2023-07-09T10:10:20.383Z,645.00
2023-07-09T10:11:20.412Z,631.00
2023-07-09T10:12:20.442Z,629.00
2023-07-09T10:13:20.519Z,625.00
2023-07-09T10:14:20.560Z,622.00
2023-07-09T10:15:20.625Z,628.00
2023-07-09T10:16:20.661Z,617.00
2023-07-09T10:17:20.736Z,622.00
2023-07-09T10:18:20.917Z,625.00
2023-07-09T10:19:20.825Z,623.00
2023-07-09T10:20:20.937Z,625.00
2023-07-09T10:21:20.934Z,629.00
2023-07-09T10:22:20.990Z,619.00
2023-07-09T10:23:21.079Z,612.00
2023-07-09T10:24:21.108Z,614.00
2023-07-09T10:25:21.139Z,609.00
2023-07-09T10:26:21.220Z,608.00
2023-07-09T10:27:21.272Z,600.00
2023-07-09T10:28:21.329Z,593.00
2023-07-09T10:29:21.382Z,596.00
2023-07-09T10:30:22.685Z,604.00
2023-07-09T10:31:21.521Z,594.00
2023-07-09T10:32:21.511Z,599.00
2023-07-09T10:33:21.595Z,595.00
2023-07-09T10:34:21.635Z,605.00
2023-07-09T10:35:21.673Z,600.00
2023-07-09T10:36:21.717Z,597.00
2023-07-09T10:37:21.846Z,595.00
2023-07-09T10:38:21.853Z,584.00
2023-07-09T10:39:21.914Z,585.00
2023-07-09T10:40:21.925Z,590.00
2023-07-09T10:41:27.199Z,574.00
2023-07-09T10:42:22.983Z,573.00
2023-07-09T10:43:21.995Z,574.00
2023-07-09T10:44:21.994Z,575.00
2023-07-09T10:45:21.966Z,578.00
2023-07-09T10:46:21.998Z,573.00
2023-07-09T10:47:21.982Z,556.00
2023-07-09T10:48:21.953Z,539.00
2023-07-09T10:49:21.962Z,537.00
2023-07-09T10:50:21.927Z,554.00
2023-07-09T10:51:21.914Z,546.00
2023-07-09T10:52:21.960Z,540.00
2023-07-09T10:53:22.014Z,545.00
2023-07-09T10:54:22.050Z,540.00
2023-07-09T10:55:22.096Z,539.00
2023-07-09T10:56:22.193Z,548.00
2023-07-09T10:57:22.209Z,545.00
2023-07-09T10:58:24.171Z,542.00
2023-07-09T10:59:22.294Z,544.00
2023-07-09T11:00:22.364Z,540.00
2023-07-09T11:01:22.455Z,535.00
2023-07-09T11:02:22.500Z,534.00
2023-07-09T11:03:22.571Z,538.00
2023-07-09T11:04:22.542Z,523.00
2023-07-09T11:05:22.595Z,526.00
2023-07-09T11:06:22.667Z,532.00
2023-07-09T11:07:22.700Z,518.00
2023-07-09T11:08:22.774Z,514.00
2023-07-09T11:09:22.811Z,507.00
2023-07-09T11:10:22.854Z,500.00
2023-07-09T11:11:22.916Z,517.00
2023-07-09T11:12:22.951Z,509.00
2023-07-09T11:13:23.075Z,498.00
2023-07-09T11:14:23.135Z,502.00
2023-07-09T11:15:23.137Z,520.00
2023-07-09T11:16:23.229Z,522.00
2023-07-09T11:17:23.228Z,515.00
2023-07-09T11:18:23.261Z,516.00
2023-07-09T11:19:23.346Z,514.00
2023-07-09T11:20:23.382Z,503.00
2023-07-09T11:21:23.509Z,514.00
2023-07-09T11:22:23.482Z,520.00
2023-07-09T11:23:23.577Z,513.00
2023-07-09T11:24:23.594Z,500.00
2023-07-09T11:25:23.655Z,512.00
2023-07-09T11:26:23.718Z,516.00
2023-07-09T11:27:23.768Z,512.00
2023-07-09T11:28:23.856Z,500.00
2023-07-09T11:29:23.898Z,503.00
2023-07-09T11:30:23.954Z,520.00
2023-07-09T11:31:24.040Z,517.00
2023-07-09T11:32:24.140Z,500.00
2023-07-09T11:33:25.551Z,510.00
2023-07-09T11:34:24.171Z,508.00
2023-07-09T11:35:24.237Z,509.00
2023-07-09T11:36:24.334Z,500.00
2023-07-09T11:37:24.364Z,518.00
2023-07-09T11:38:24.392Z,528.00
2023-07-09T11:39:24.469Z,516.00
2023-07-09T11:40:24.535Z,512.00
2023-07-09T11:41:24.579Z,509.00
2023-07-09T11:42:24.627Z,515.00
2023-07-09T11:43:24.678Z,513.00
2023-07-09T11:44:24.833Z,508.00
2023-07-09T11:45:24.800Z,505.00
2023-07-09T11:46:24.907Z,513.00
2023-07-09T11:47:24.958Z,503.00
2023-07-09T11:48:24.972Z,511.00
2023-07-09T11:49:25.045Z,497.00
2023-07-09T11:50:25.108Z,504.00
2023-07-09T11:51:25.162Z,507.00
2023-07-09T11:52:25.204Z,510.00
2023-07-09T11:53:25.268Z,505.00
2023-07-09T11:54:25.316Z,499.00
2023-07-09T11:55:25.385Z,504.00
2023-07-09T11:56:25.440Z,514.00
2023-07-09T11:57:25.514Z,501.00
2023-07-09T11:58:25.548Z,500.00
2023-07-09T11:59:25.624Z,509.00
2023-07-09T12:00:25.691Z,500.00
2023-07-09T12:01:25.742Z,515.00
2023-07-09T12:02:25.804Z,501.00
2023-07-09T12:03:25.859Z,506.00
2023-07-09T12:04:25.960Z,501.00
2023-07-09T12:05:25.918Z,533.00
2023-07-09T12:06:25.932Z,524.00
2023-07-09T12:07:25.976Z,521.00
2023-07-09T12:08:26.013Z,509.00
2023-07-09T12:09:26.066Z,519.00
2023-07-09T12:10:26.100Z,528.00
2023-07-09T12:11:26.134Z,502.00
2023-07-09T12:12:26.177Z,525.00
2023-07-09T12:13:26.274Z,524.00